sensor_id;sensor_type;location;lat;lon;timestamp;P1;durP1;ratioP1;P2;durP2;ratioP2
44762;SDS011;30483;49.576;6.036;2024-01-15T04:00:28;11.38;;;7.13;;
44762;SDS011;30483;49.576;6.036;2024-01-15T04:02:53;11.38;;;7.30;;
44762;SDS011;30483;49.576;6.036;2024-01-15T04:05:19;11.32;;;7.55;;
44762;SDS011;30483;49.576;6.036;2024-01-15T04:07:45;11.05;;;7.57;;
44762;SDS011;30483;49.576;6.036;2024-01-15T04:10:11;10.55;;;7.28;;
44762;SDS011;30483;49.576;6.036;2024-01-15T04:12:37;11.68;;;7.55;;
44762;SDS011;30483;49.576;6.036;2024-01-15T04:15:02;10.25;;;7.05;;
44762;SDS011;30483;49.576;6.036;2024-01-15T04:17:28;10.52;;;6.90;;
44762;SDS011;30483;49.576;6.036;2024-01-15T04:19:54;10.70;;;7.50;;
44762;SDS011;30483;49.576;6.036;2024-01-15T04:22:20;11.13;;;7.03;;
44762;SDS011;30483;49.576;6.036;2024-01-15T04:24:46;10.63;;;7.18;;
44762;SDS011;30483;49.576;6.036;2024-01-15T04:27:11;10.75;;;7.50;;
44762;SDS011;30483;49.576;6.036;2024-01-15T04:29:40;10.85;;;7.47;;
44762;SDS011;30483;49.576;6.036;2024-01-15T04:32:05;11.77;;;7.55;;
44762;SDS011;30483;49.576;6.036;2024-01-15T04:34:31;10.57;;;7.22;;
44762;SDS011;30483;49.576;6.036;2024-01-15T04:36:57;11.95;;;7.88;;
44762;SDS011;30483;49.576;6.036;2024-01-15T04:39:22;10.13;;;7.40;;
44762;SDS011;30483;49.576;6.036;2024-01-15T04:41:48;11.52;;;7.65;;
44762;SDS011;30483;49.576;6.036;2024-01-15T04:44:13;11.20;;;7.35;;
44762;SDS011;30483;49.576;6.036;2024-01-15T04:46:39;10.52;;;6.97;;
44762;SDS011;30483;49.576;6.036;2024-01-15T04:49:05;11.10;;;7.70;;
44762;SDS011;30483;49.576;6.036;2024-01-15T04:51:30;10.68;;;7.47;;
44762;SDS011;30483;49.576;6.036;2024-01-15T04:53:56;9.82;;;6.97;;
44762;SDS011;30483;49.576;6.036;2024-01-15T04:56:21;11.20;;;7.50;;
44762;SDS011;30483;49.576;6.036;2024-01-15T04:58:47;9.93;;;7.00;;
44762;SDS011;30483;49.576;6.036;2024-01-15T05:01:12;10.05;;;7.07;;
44762;SDS011;30483;49.576;6.036;2024-01-15T05:03:42;10.13;;;7.10;;
44762;SDS011;30483;49.576;6.036;2024-01-15T05:06:08;10.02;;;7.10;;
44762;SDS011;30483;49.576;6.036;2024-01-15T05:08:34;9.75;;;7.20;;
44762;SDS011;30483;49.576;6.036;2024-01-15T05:10:59;9.65;;;6.70;;
44762;SDS011;30483;49.576;6.036;2024-01-15T05:13:25;9.00;;;6.90;;
44762;SDS011;30483;49.576;6.036;2024-01-15T05:15:50;9.38;;;6.85;;
44762;SDS011;30483;49.576;6.036;2024-01-15T05:18:16;10.02;;;7.00;;
44762;SDS011;30483;49.576;6.036;2024-01-15T05:20:42;10.05;;;7.00;;
44762;SDS011;30483;49.576;6.036;2024-01-15T05:23:08;10.30;;;7.45;;
44762;SDS011;30483;49.576;6.036;2024-01-15T05:25:33;10.32;;;7.30;;
44762;SDS011;30483;49.576;6.036;2024-01-15T05:27:59;10.20;;;7.32;;
44762;SDS011;30483;49.576;6.036;2024-01-15T05:30:25;10.23;;;7.30;;
44762;SDS011;30483;49.576;6.036;2024-01-15T05:32:50;9.57;;;7.13;;
44762;SDS011;30483;49.576;6.036;2024-01-15T05:35:21;11.35;;;7.63;;
44762;SDS011;30483;49.576;6.036;2024-01-15T05:37:46;10.38;;;7.40;;
44762;SDS011;30483;49.576;6.036;2024-01-15T05:40:13;9.50;;;7.07;;
44762;SDS011;30483;49.576;6.036;2024-01-15T05:42:39;11.15;;;7.60;;
44762;SDS011;30483;49.576;6.036;2024-01-15T05:45:05;10.45;;;7.28;;
44762;SDS011;30483;49.576;6.036;2024-01-15T05:47:31;8.55;;;5.28;;
44762;SDS011;30483;49.576;6.036;2024-01-15T05:49:57;34.17;;;20.50;;
44762;SDS011;30483;49.576;6.036;2024-01-15T05:52:23;34.35;;;20.00;;
44762;SDS011;30483;49.576;6.036;2024-01-15T05:54:49;35.50;;;20.10;;
44762;SDS011;30483;49.576;6.036;2024-01-15T05:57:15;31.95;;;19.10;;
44762;SDS011;30483;49.576;6.036;2024-01-15T05:59:41;29.30;;;18.65;;
44762;SDS011;30483;49.576;6.036;2024-01-15T06:02:07;29.20;;;17.92;;
44762;SDS011;30483;49.576;6.036;2024-01-15T06:04:33;30.70;;;18.20;;
44762;SDS011;30483;49.576;6.036;2024-01-15T06:06:59;30.15;;;17.58;;
44762;SDS011;30483;49.576;6.036;2024-01-15T06:09:24;27.33;;;17.20;;
44762;SDS011;30483;49.576;6.036;2024-01-15T06:11:50;32.30;;;18.20;;
44762;SDS011;30483;49.576;6.036;2024-01-15T06:14:15;27.73;;;16.75;;
44762;SDS011;30483;49.576;6.036;2024-01-15T06:16:41;28.00;;;17.35;;
44762;SDS011;30483;49.576;6.036;2024-01-15T06:19:06;28.02;;;17.35;;
44762;SDS011;30483;49.576;6.036;2024-01-15T06:21:32;25.60;;;15.82;;
44762;SDS011;30483;49.576;6.036;2024-01-15T06:23:58;26.25;;;15.93;;
44762;SDS011;30483;49.576;6.036;2024-01-15T06:26:23;31.58;;;19.55;;
44762;SDS011;30483;49.576;6.036;2024-01-15T06:28:50;52.05;;;30.55;;
44762;SDS011;30483;49.576;6.036;2024-01-15T06:31:15;45.83;;;27.05;;
44762;SDS011;30483;49.576;6.036;2024-01-15T06:33:41;43.95;;;25.13;;
44762;SDS011;30483;49.576;6.036;2024-01-15T06:36:07;44.45;;;24.30;;
44762;SDS011;30483;49.576;6.036;2024-01-15T06:38:32;40.92;;;23.45;;
44762;SDS011;30483;49.576;6.036;2024-01-15T06:40:58;40.20;;;23.95;;
44762;SDS011;30483;49.576;6.036;2024-01-15T06:43:23;44.00;;;24.27;;
44762;SDS011;30483;49.576;6.036;2024-01-15T06:45:49;62.40;;;23.15;;
44762;SDS011;30483;49.576;6.036;2024-01-15T06:48:15;46.20;;;23.40;;
44762;SDS011;30483;49.576;6.036;2024-01-15T06:50:41;43.97;;;22.40;;
44762;SDS011;30483;49.576;6.036;2024-01-15T06:53:08;50.30;;;22.02;;
44762;SDS011;30483;49.576;6.036;2024-01-15T06:55:33;39.42;;;21.05;;
44762;SDS011;30483;49.576;6.036;2024-01-15T06:57:59;39.03;;;21.65;;
44762;SDS011;30483;49.576;6.036;2024-01-15T07:00:25;35.90;;;20.40;;
44762;SDS011;30483;49.576;6.036;2024-01-15T07:02:51;39.00;;;20.77;;
44762;SDS011;30483;49.576;6.036;2024-01-15T07:05:16;40.00;;;20.92;;
44762;SDS011;30483;49.576;6.036;2024-01-15T07:07:42;38.83;;;21.10;;
44762;SDS011;30483;49.576;6.036;2024-01-15T07:10:08;37.15;;;19.65;;
44762;SDS011;30483;49.576;6.036;2024-01-15T07:12:34;35.50;;;19.73;;
44762;SDS011;30483;49.576;6.036;2024-01-15T07:15:00;35.30;;;18.55;;
44762;SDS011;30483;49.576;6.036;2024-01-15T07:17:25;33.50;;;18.23;;
44762;SDS011;30483;49.576;6.036;2024-01-15T07:19:51;37.40;;;19.15;;
44762;SDS011;30483;49.576;6.036;2024-01-15T07:22:16;33.92;;;18.27;;
44762;SDS011;30483;49.576;6.036;2024-01-15T07:24:42;29.25;;;17.70;;
44762;SDS011;30483;49.576;6.036;2024-01-15T07:27:08;29.88;;;17.80;;
44762;SDS011;30483;49.576;6.036;2024-01-15T07:29:34;34.38;;;18.00;;
44762;SDS011;30483;49.576;6.036;2024-01-15T07:32:03;31.05;;;17.35;;
44762;SDS011;30483;49.576;6.036;2024-01-15T07:34:29;30.00;;;17.27;;
44762;SDS011;30483;49.576;6.036;2024-01-15T07:36:57;30.90;;;17.70;;
44762;SDS011;30483;49.576;6.036;2024-01-15T07:39:22;28.77;;;16.83;;
44762;SDS011;30483;49.576;6.036;2024-01-15T07:41:49;25.45;;;15.88;;
44762;SDS011;30483;49.576;6.036;2024-01-15T07:44:15;25.60;;;15.85;;
44762;SDS011;30483;49.576;6.036;2024-01-15T07:46:45;26.92;;;15.68;;
44762;SDS011;30483;49.576;6.036;2024-01-15T07:49:11;25.35;;;15.25;;
44762;SDS011;30483;49.576;6.036;2024-01-15T07:51:37;24.42;;;15.02;;
44762;SDS011;30483;49.576;6.036;2024-01-15T07:54:02;26.30;;;15.35;;
44762;SDS011;30483;49.576;6.036;2024-01-15T07:56:28;25.33;;;14.73;;
44762;SDS011;30483;49.576;6.036;2024-01-15T07:58:54;23.25;;;13.98;;
44762;SDS011;30483;49.576;6.036;2024-01-15T08:01:21;25.45;;;15.85;;
44762;SDS011;30483;49.576;6.036;2024-01-15T08:03:46;23.05;;;13.80;;
44762;SDS011;30483;49.576;6.036;2024-01-15T08:06:13;21.90;;;14.05;;
44762;SDS011;30483;49.576;6.036;2024-01-15T08:08:38;23.75;;;14.10;;
44762;SDS011;30483;49.576;6.036;2024-01-15T08:11:04;23.73;;;13.95;;
44762;SDS011;30483;49.576;6.036;2024-01-15T08:13:30;21.85;;;13.10;;
44762;SDS011;30483;49.576;6.036;2024-01-15T08:15:55;25.05;;;13.40;;
44762;SDS011;30483;49.576;6.036;2024-01-15T08:18:21;22.67;;;12.82;;
44762;SDS011;30483;49.576;6.036;2024-01-15T08:20:47;22.20;;;13.27;;
44762;SDS011;30483;49.576;6.036;2024-01-15T08:23:12;19.08;;;12.65;;
44762;SDS011;30483;49.576;6.036;2024-01-15T08:25:38;20.38;;;12.93;;
44762;SDS011;30483;49.576;6.036;2024-01-15T08:28:04;18.60;;;12.52;;
44762;SDS011;30483;49.576;6.036;2024-01-15T08:30:30;17.98;;;11.77;;
44762;SDS011;30483;49.576;6.036;2024-01-15T08:32:56;17.63;;;11.95;;
44762;SDS011;30483;49.576;6.036;2024-01-15T08:35:22;18.25;;;11.70;;
44762;SDS011;30483;49.576;6.036;2024-01-15T08:37:51;20.45;;;11.95;;
44762;SDS011;30483;49.576;6.036;2024-01-15T08:40:17;17.30;;;11.48;;
44762;SDS011;30483;49.576;6.036;2024-01-15T08:42:43;20.10;;;12.13;;
44762;SDS011;30483;49.576;6.036;2024-01-15T08:45:09;16.58;;;11.02;;
44762;SDS011;30483;49.576;6.036;2024-01-15T08:47:35;17.10;;;11.15;;
44762;SDS011;30483;49.576;6.036;2024-01-15T08:50:01;15.75;;;10.65;;
44762;SDS011;30483;49.576;6.036;2024-01-15T08:52:28;19.00;;;11.50;;
44762;SDS011;30483;49.576;6.036;2024-01-15T08:54:54;15.73;;;10.80;;
44762;SDS011;30483;49.576;6.036;2024-01-15T08:57:20;17.58;;;11.23;;
44762;SDS011;30483;49.576;6.036;2024-01-15T08:59:47;15.15;;;10.63;;
44762;SDS011;30483;49.576;6.036;2024-01-15T09:02:12;15.35;;;10.50;;
44762;SDS011;30483;49.576;6.036;2024-01-15T09:04:38;16.50;;;10.60;;
44762;SDS011;30483;49.576;6.036;2024-01-15T09:07:04;15.77;;;10.73;;
44762;SDS011;30483;49.576;6.036;2024-01-15T09:09:30;16.42;;;10.52;;
44762;SDS011;30483;49.576;6.036;2024-01-15T09:11:55;14.57;;;10.05;;
44762;SDS011;30483;49.576;6.036;2024-01-15T09:14:21;15.70;;;10.43;;
44762;SDS011;30483;49.576;6.036;2024-01-15T09:16:49;14.50;;;10.00;;
44762;SDS011;30483;49.576;6.036;2024-01-15T09:19:15;14.38;;;10.13;;
44762;SDS011;30483;49.576;6.036;2024-01-15T09:21:40;14.13;;;9.60;;
44762;SDS011;30483;49.576;6.036;2024-01-15T09:24:06;13.15;;;7.93;;
44762;SDS011;30483;49.576;6.036;2024-01-15T09:26:31;15.70;;;9.40;;
44762;SDS011;30483;49.576;6.036;2024-01-15T09:28:57;15.00;;;10.20;;
44762;SDS011;30483;49.576;6.036;2024-01-15T09:31:23;15.45;;;9.60;;
44762;SDS011;30483;49.576;6.036;2024-01-15T09:33:49;16.25;;;9.30;;
44762;SDS011;30483;49.576;6.036;2024-01-15T09:36:17;13.35;;;8.88;;
44762;SDS011;30483;49.576;6.036;2024-01-15T09:38:43;13.25;;;8.80;;
44762;SDS011;30483;49.576;6.036;2024-01-15T09:41:08;13.25;;;9.05;;
44762;SDS011;30483;49.576;6.036;2024-01-15T09:43:34;12.93;;;8.63;;
44762;SDS011;30483;49.576;6.036;2024-01-15T09:46:02;13.13;;;9.38;;
44762;SDS011;30483;49.576;6.036;2024-01-15T09:48:28;12.65;;;8.93;;
44762;SDS011;30483;49.576;6.036;2024-01-15T09:50:54;11.98;;;8.48;;
44762;SDS011;30483;49.576;6.036;2024-01-15T09:53:20;12.40;;;8.68;;
44762;SDS011;30483;49.576;6.036;2024-01-15T09:55:46;10.93;;;8.13;;
44762;SDS011;30483;49.576;6.036;2024-01-15T09:58:14;11.82;;;8.20;;
44762;SDS011;30483;49.576;6.036;2024-01-15T10:00:40;12.52;;;8.30;;
44762;SDS011;30483;49.576;6.036;2024-01-15T10:03:08;12.10;;;8.30;;
44762;SDS011;30483;49.576;6.036;2024-01-15T10:05:37;10.68;;;7.88;;
44762;SDS011;30483;49.576;6.036;2024-01-15T10:08:04;10.82;;;7.93;;
44762;SDS011;30483;49.576;6.036;2024-01-15T10:10:29;13.55;;;8.40;;
44762;SDS011;30483;49.576;6.036;2024-01-15T10:12:56;11.88;;;8.30;;
44762;SDS011;30483;49.576;6.036;2024-01-15T10:15:27;11.77;;;7.72;;
44762;SDS011;30483;49.576;6.036;2024-01-15T10:17:53;11.32;;;7.88;;
44762;SDS011;30483;49.576;6.036;2024-01-15T10:20:19;10.73;;;7.95;;
44762;SDS011;30483;49.576;6.036;2024-01-15T10:22:47;11.00;;;8.05;;
44762;SDS011;30483;49.576;6.036;2024-01-15T10:25:13;10.15;;;7.50;;
44762;SDS011;30483;49.576;6.036;2024-01-15T10:27:42;10.35;;;7.72;;
44762;SDS011;30483;49.576;6.036;2024-01-15T10:30:09;10.45;;;7.15;;
44762;SDS011;30483;49.576;6.036;2024-01-15T10:32:35;10.32;;;7.65;;
44762;SDS011;30483;49.576;6.036;2024-01-15T10:35:00;10.30;;;7.53;;
44762;SDS011;30483;49.576;6.036;2024-01-15T10:37:28;11.57;;;7.60;;
44762;SDS011;30483;49.576;6.036;2024-01-15T10:39:53;10.98;;;7.50;;
44762;SDS011;30483;49.576;6.036;2024-01-15T10:42:19;9.60;;;7.28;;
44762;SDS011;30483;49.576;6.036;2024-01-15T10:44:44;10.10;;;7.25;;
44762;SDS011;30483;49.576;6.036;2024-01-15T10:47:13;9.85;;;7.00;;
44762;SDS011;30483;49.576;6.036;2024-01-15T10:49:39;9.95;;;7.05;;
44762;SDS011;30483;49.576;6.036;2024-01-15T10:52:06;10.57;;;6.72;;
44762;SDS011;30483;49.576;6.036;2024-01-15T10:54:32;9.77;;;7.30;;
44762;SDS011;30483;49.576;6.036;2024-01-15T10:56:58;11.32;;;7.07;;
44762;SDS011;30483;49.576;6.036;2024-01-15T10:59:24;8.43;;;6.65;;
44762;SDS011;30483;49.576;6.036;2024-01-15T11:01:50;9.85;;;7.10;;
44762;SDS011;30483;49.576;6.036;2024-01-15T11:04:21;11.98;;;7.05;;
44762;SDS011;30483;49.576;6.036;2024-01-15T11:06:49;8.40;;;6.63;;
44762;SDS011;30483;49.576;6.036;2024-01-15T11:09:18;9.18;;;7.00;;
44762;SDS011;30483;49.576;6.036;2024-01-15T11:11:44;9.40;;;6.80;;
44762;SDS011;30483;49.576;6.036;2024-01-15T11:14:33;8.52;;;6.68;;
44762;SDS011;30483;49.576;6.036;2024-01-15T11:17:03;9.40;;;6.88;;
44762;SDS011;30483;49.576;6.036;2024-01-15T11:19:36;8.35;;;6.50;;
44762;SDS011;30483;49.576;6.036;2024-01-15T11:22:08;8.98;;;7.05;;
44762;SDS011;30483;49.576;6.036;2024-01-15T11:24:37;9.18;;;6.90;;
44762;SDS011;30483;49.576;6.036;2024-01-15T11:27:04;8.35;;;6.60;;
44762;SDS011;30483;49.576;6.036;2024-01-15T11:29:32;10.02;;;6.82;;
44762;SDS011;30483;49.576;6.036;2024-01-15T11:32:03;8.35;;;6.40;;
44762;SDS011;30483;49.576;6.036;2024-01-15T11:37:19;8.45;;;6.20;;
44762;SDS011;30483;49.576;6.036;2024-01-15T11:39:46;8.60;;;6.20;;
44762;SDS011;30483;49.576;6.036;2024-01-15T11:42:12;9.65;;;6.55;;
44762;SDS011;30483;49.576;6.036;2024-01-15T11:44:38;9.13;;;6.63;;
44762;SDS011;30483;49.576;6.036;2024-01-15T11:47:05;8.20;;;6.25;;
44762;SDS011;30483;49.576;6.036;2024-01-15T11:49:50;8.02;;;6.43;;
44762;SDS011;30483;49.576;6.036;2024-01-15T11:52:25;7.53;;;5.75;;
44762;SDS011;30483;49.576;6.036;2024-01-15T11:57:37;8.23;;;6.15;;
44762;SDS011;30483;49.576;6.036;2024-01-15T12:00:11;7.28;;;5.75;;
44762;SDS011;30483;49.576;6.036;2024-01-15T12:02:44;7.97;;;6.00;;
44762;SDS011;30483;49.576;6.036;2024-01-15T12:05:11;7.82;;;6.03;;
44762;SDS011;30483;49.576;6.036;2024-01-15T12:07:42;7.75;;;6.15;;
44762;SDS011;30483;49.576;6.036;2024-01-15T12:15:30;8.40;;;6.13;;
44762;SDS011;30483;49.576;6.036;2024-01-15T12:17:57;7.22;;;5.88;;
44762;SDS011;30483;49.576;6.036;2024-01-15T12:20:25;7.53;;;5.78;;
44762;SDS011;30483;49.576;6.036;2024-01-15T12:22:51;7.90;;;6.07;;
44762;SDS011;30483;49.576;6.036;2024-01-15T12:25:17;7.55;;;5.78;;
44762;SDS011;30483;49.576;6.036;2024-01-15T12:27:43;8.20;;;5.85;;
44762;SDS011;30483;49.576;6.036;2024-01-15T12:30:13;7.20;;;5.68;;
44762;SDS011;30483;49.576;6.036;2024-01-15T12:32:39;7.38;;;6.00;;
44762;SDS011;30483;49.576;6.036;2024-01-15T12:35:07;8.75;;;6.18;;
44762;SDS011;30483;49.576;6.036;2024-01-15T12:37:35;6.53;;;5.32;;
44762;SDS011;30483;49.576;6.036;2024-01-15T12:40:01;6.72;;;5.45;;
44762;SDS011;30483;49.576;6.036;2024-01-15T12:42:28;6.70;;;5.43;;
44762;SDS011;30483;49.576;6.036;2024-01-15T12:44:55;7.50;;;5.43;;
44762;SDS011;30483;49.576;6.036;2024-01-15T12:47:21;5.78;;;4.68;;
44762;SDS011;30483;49.576;6.036;2024-01-15T12:49:47;6.18;;;5.07;;
44762;SDS011;30483;49.576;6.036;2024-01-15T12:52:18;6.32;;;5.10;;
44762;SDS011;30483;49.576;6.036;2024-01-15T12:54:46;6.40;;;5.10;;
44762;SDS011;30483;49.576;6.036;2024-01-15T12:57:13;7.60;;;5.53;;
44762;SDS011;30483;49.576;6.036;2024-01-15T12:59:39;6.93;;;5.30;;
44762;SDS011;30483;49.576;6.036;2024-01-15T13:02:05;8.55;;;5.28;;
44762;SDS011;30483;49.576;6.036;2024-01-15T13:04:30;6.45;;;5.03;;
44762;SDS011;30483;49.576;6.036;2024-01-15T13:06:56;6.75;;;5.43;;
44762;SDS011;30483;49.576;6.036;2024-01-15T13:09:22;7.38;;;5.03;;
44762;SDS011;30483;49.576;6.036;2024-01-15T13:11:47;7.40;;;5.30;;
44762;SDS011;30483;49.576;6.036;2024-01-15T13:14:13;6.57;;;5.05;;
44762;SDS011;30483;49.576;6.036;2024-01-15T13:16:42;6.32;;;5.05;;
44762;SDS011;30483;49.576;6.036;2024-01-15T13:19:09;6.95;;;5.32;;
44762;SDS011;30483;49.576;6.036;2024-01-15T13:21:36;6.03;;;4.70;;
44762;SDS011;30483;49.576;6.036;2024-01-15T13:24:02;6.10;;;4.90;;
44762;SDS011;30483;49.576;6.036;2024-01-15T13:26:30;5.90;;;4.65;;
44762;SDS011;30483;49.576;6.036;2024-01-15T13:28:59;5.68;;;4.78;;
44762;SDS011;30483;49.576;6.036;2024-01-15T13:31:26;5.60;;;4.57;;
44762;SDS011;30483;49.576;6.036;2024-01-15T13:33:55;7.93;;;4.23;;
44762;SDS011;30483;49.576;6.036;2024-01-15T13:36:21;6.85;;;5.03;;
44762;SDS011;30483;49.576;6.036;2024-01-15T13:38:48;5.78;;;4.78;;
44762;SDS011;30483;49.576;6.036;2024-01-15T13:41:18;5.43;;;4.38;;
44762;SDS011;30483;49.576;6.036;2024-01-15T13:43:48;6.25;;;4.75;;
44762;SDS011;30483;49.576;6.036;2024-01-15T13:46:15;4.90;;;4.40;;
44762;SDS011;30483;49.576;6.036;2024-01-15T13:48:42;6.35;;;4.43;;
44762;SDS011;30483;49.576;6.036;2024-01-15T13:51:08;4.57;;;3.80;;
44762;SDS011;30483;49.576;6.036;2024-01-15T13:53:33;5.97;;;4.68;;
44762;SDS011;30483;49.576;6.036;2024-01-15T13:55:59;6.15;;;4.00;;
44762;SDS011;30483;49.576;6.036;2024-01-15T13:58:25;5.47;;;3.90;;
44762;SDS011;30483;49.576;6.036;2024-01-15T14:00:51;4.63;;;3.85;;
44762;SDS011;30483;49.576;6.036;2024-01-15T14:03:17;6.35;;;4.07;;
44762;SDS011;30483;49.576;6.036;2024-01-15T14:05:44;5.63;;;4.18;;
44762;SDS011;30483;49.576;6.036;2024-01-15T14:08:09;7.53;;;3.92;;
44762;SDS011;30483;49.576;6.036;2024-01-15T14:10:35;4.97;;;3.95;;
44762;SDS011;30483;49.576;6.036;2024-01-15T14:13:02;5.07;;;4.07;;
44762;SDS011;30483;49.576;6.036;2024-01-15T14:15:28;5.32;;;3.90;;
44762;SDS011;30483;49.576;6.036;2024-01-15T14:17:54;5.10;;;3.42;;
44762;SDS011;30483;49.576;6.036;2024-01-15T14:20:19;4.70;;;3.85;;
44762;SDS011;30483;49.576;6.036;2024-01-15T14:22:45;5.13;;;3.55;;
44762;SDS011;30483;49.576;6.036;2024-01-15T14:25:10;5.25;;;3.80;;
44762;SDS011;30483;49.576;6.036;2024-01-15T14:27:36;6.47;;;3.50;;
44762;SDS011;30483;49.576;6.036;2024-01-15T14:30:02;5.40;;;3.85;;
44762;SDS011;30483;49.576;6.036;2024-01-15T14:32:28;3.95;;;3.38;;
44762;SDS011;30483;49.576;6.036;2024-01-15T14:34:54;5.95;;;3.53;;
44762;SDS011;30483;49.576;6.036;2024-01-15T14:37:21;4.47;;;3.83;;
44762;SDS011;30483;49.576;6.036;2024-01-15T14:39:47;5.97;;;3.28;;
44762;SDS011;30483;49.576;6.036;2024-01-15T14:42:13;6.45;;;2.40;;
44762;SDS011;30483;49.576;6.036;2024-01-15T14:44:39;6.03;;;2.33;;
44762;SDS011;30483;49.576;6.036;2024-01-15T14:47:06;5.63;;;2.13;;
44762;SDS011;30483;49.576;6.036;2024-01-15T14:49:32;6.35;;;2.42;;
44762;SDS011;30483;49.576;6.036;2024-01-15T14:51:58;3.70;;;2.40;;
44762;SDS011;30483;49.576;6.036;2024-01-15T14:54:24;5.22;;;2.60;;
44762;SDS011;30483;49.576;6.036;2024-01-15T14:56:50;3.70;;;2.28;;
44762;SDS011;30483;49.576;6.036;2024-01-15T14:59:16;4.82;;;2.20;;
44762;SDS011;30483;49.576;6.036;2024-01-15T15:01:42;3.50;;;1.92;;
44762;SDS011;30483;49.576;6.036;2024-01-15T15:04:08;4.60;;;2.10;;
44762;SDS011;30483;49.576;6.036;2024-01-15T15:06:35;3.67;;;2.15;;
44762;SDS011;30483;49.576;6.036;2024-01-15T15:09:01;3.28;;;2.15;;
44762;SDS011;30483;49.576;6.036;2024-01-15T15:11:27;2.75;;;2.10;;
44762;SDS011;30483;49.576;6.036;2024-01-15T15:13:53;5.30;;;2.00;;
44762;SDS011;30483;49.576;6.036;2024-01-15T15:16:19;4.20;;;1.88;;
44762;SDS011;30483;49.576;6.036;2024-01-15T15:18:44;3.17;;;2.10;;
44762;SDS011;30483;49.576;6.036;2024-01-15T15:21:11;3.58;;;1.73;;
44762;SDS011;30483;49.576;6.036;2024-01-15T15:23:37;2.85;;;1.70;;
44762;SDS011;30483;49.576;6.036;2024-01-15T15:26:05;3.63;;;1.90;;
44762;SDS011;30483;49.576;6.036;2024-01-15T15:28:31;3.50;;;1.92;;
44762;SDS011;30483;49.576;6.036;2024-01-15T15:30:56;3.38;;;1.80;;
44762;SDS011;30483;49.576;6.036;2024-01-15T15:33:22;2.88;;;2.10;;
44762;SDS011;30483;49.576;6.036;2024-01-15T15:35:48;4.45;;;1.85;;
44762;SDS011;30483;49.576;6.036;2024-01-15T15:38:16;4.22;;;2.20;;
44762;SDS011;30483;49.576;6.036;2024-01-15T15:40:42;2.50;;;1.80;;
44762;SDS011;30483;49.576;6.036;2024-01-15T15:43:07;3.60;;;1.92;;
44762;SDS011;30483;49.576;6.036;2024-01-15T15:45:33;3.63;;;2.00;;
44762;SDS011;30483;49.576;6.036;2024-01-15T15:47:59;4.90;;;1.98;;
44762;SDS011;30483;49.576;6.036;2024-01-15T15:50:24;4.45;;;1.70;;
44762;SDS011;30483;49.576;6.036;2024-01-15T15:52:50;5.38;;;1.80;;
44762;SDS011;30483;49.576;6.036;2024-01-15T15:55:16;3.08;;;1.70;;
44762;SDS011;30483;49.576;6.036;2024-01-15T15:57:41;4.20;;;2.05;;
44762;SDS011;30483;49.576;6.036;2024-01-15T16:00:08;4.47;;;2.03;;
44762;SDS011;30483;49.576;6.036;2024-01-15T16:02:33;4.90;;;2.13;;
44762;SDS011;30483;49.576;6.036;2024-01-15T16:04:59;2.97;;;1.77;;
44762;SDS011;30483;49.576;6.036;2024-01-15T16:07:25;3.85;;;1.70;;
44762;SDS011;30483;49.576;6.036;2024-01-15T16:09:56;3.95;;;1.85;;
44762;SDS011;30483;49.576;6.036;2024-01-15T16:12:22;4.20;;;1.58;;
44762;SDS011;30483;49.576;6.036;2024-01-15T16:14:48;4.22;;;1.70;;
44762;SDS011;30483;49.576;6.036;2024-01-15T16:17:13;2.88;;;1.50;;
44762;SDS011;30483;49.576;6.036;2024-01-15T16:19:39;3.40;;;1.60;;
44762;SDS011;30483;49.576;6.036;2024-01-15T16:22:04;3.08;;;1.33;;
44762;SDS011;30483;49.576;6.036;2024-01-15T16:24:30;5.45;;;1.77;;
44762;SDS011;30483;49.576;6.036;2024-01-15T16:26:56;3.63;;;1.58;;
44762;SDS011;30483;49.576;6.036;2024-01-15T16:29:22;4.38;;;2.08;;
44762;SDS011;30483;49.576;6.036;2024-01-15T16:31:48;3.85;;;2.00;;
44762;SDS011;30483;49.576;6.036;2024-01-15T16:34:13;4.30;;;2.00;;
44762;SDS011;30483;49.576;6.036;2024-01-15T16:36:39;3.90;;;2.05;;
44762;SDS011;30483;49.576;6.036;2024-01-15T16:39:05;4.90;;;2.20;;
44762;SDS011;30483;49.576;6.036;2024-01-15T16:41:30;3.42;;;1.98;;
44762;SDS011;30483;49.576;6.036;2024-01-15T16:43:56;3.13;;;1.70;;
44762;SDS011;30483;49.576;6.036;2024-01-15T16:46:22;3.40;;;1.88;;
44762;SDS011;30483;49.576;6.036;2024-01-15T16:48:47;3.97;;;1.90;;
44762;SDS011;30483;49.576;6.036;2024-01-15T16:51:13;5.55;;;1.90;;
44762;SDS011;30483;49.576;6.036;2024-01-15T16:53:39;3.45;;;1.92;;
44762;SDS011;30483;49.576;6.036;2024-01-15T16:56:07;3.70;;;1.98;;
44762;SDS011;30483;49.576;6.036;2024-01-15T16:58:33;4.43;;;2.00;;
44762;SDS011;30483;49.576;6.036;2024-01-15T17:00:59;5.13;;;1.90;;
44762;SDS011;30483;49.576;6.036;2024-01-15T17:03:25;2.70;;;1.55;;
44762;SDS011;30483;49.576;6.036;2024-01-15T17:05:50;3.08;;;1.52;;
44762;SDS011;30483;49.576;6.036;2024-01-15T17:08:16;4.00;;;1.70;;
44762;SDS011;30483;49.576;6.036;2024-01-15T17:10:42;3.92;;;1.38;;
44762;SDS011;30483;49.576;6.036;2024-01-15T17:13:08;2.05;;;1.48;;
44762;SDS011;30483;49.576;6.036;2024-01-15T17:15:34;3.60;;;1.65;;
44762;SDS011;30483;49.576;6.036;2024-01-15T17:17:59;2.20;;;1.42;;
44762;SDS011;30483;49.576;6.036;2024-01-15T17:20:25;3.60;;;1.77;;
44762;SDS011;30483;49.576;6.036;2024-01-15T17:22:51;3.10;;;1.58;;
44762;SDS011;30483;49.576;6.036;2024-01-15T17:25:16;3.38;;;1.65;;
44762;SDS011;30483;49.576;6.036;2024-01-15T17:27:42;3.42;;;1.70;;
44762;SDS011;30483;49.576;6.036;2024-01-15T17:30:10;2.60;;;1.70;;
44762;SDS011;30483;49.576;6.036;2024-01-15T17:32:36;3.50;;;1.73;;
44762;SDS011;30483;49.576;6.036;2024-01-15T17:35:02;4.35;;;1.65;;
44762;SDS011;30483;49.576;6.036;2024-01-15T17:37:28;2.80;;;1.52;;
44762;SDS011;30483;49.576;6.036;2024-01-15T17:39:54;4.18;;;1.65;;
44762;SDS011;30483;49.576;6.036;2024-01-15T17:42:20;3.45;;;1.70;;
44762;SDS011;30483;49.576;6.036;2024-01-15T17:44:45;3.83;;;2.05;;
44762;SDS011;30483;49.576;6.036;2024-01-15T17:47:12;2.65;;;1.63;;
44762;SDS011;30483;49.576;6.036;2024-01-15T17:49:37;2.58;;;1.65;;
44762;SDS011;30483;49.576;6.036;2024-01-15T17:52:03;2.35;;;1.70;;
44762;SDS011;30483;49.576;6.036;2024-01-15T17:54:30;3.95;;;1.60;;
44762;SDS011;30483;49.576;6.036;2024-01-15T17:56:56;3.20;;;1.73;;
44762;SDS011;30483;49.576;6.036;2024-01-15T17:59:22;3.08;;;1.80;;
44762;SDS011;30483;49.576;6.036;2024-01-15T18:01:47;3.08;;;1.67;;
44762;SDS011;30483;49.576;6.036;2024-01-15T18:04:13;2.90;;;1.55;;
44762;SDS011;30483;49.576;6.036;2024-01-15T18:06:40;2.20;;;1.35;;
44762;SDS011;30483;49.576;6.036;2024-01-15T18:09:06;3.53;;;1.48;;
44762;SDS011;30483;49.576;6.036;2024-01-15T18:11:32;2.08;;;1.40;;
44762;SDS011;30483;49.576;6.036;2024-01-15T18:13:57;3.67;;;1.58;;
44762;SDS011;30483;49.576;6.036;2024-01-15T18:16:23;3.65;;;1.58;;
44762;SDS011;30483;49.576;6.036;2024-01-15T18:18:50;2.90;;;1.58;;
44762;SDS011;30483;49.576;6.036;2024-01-15T18:21:17;3.08;;;1.67;;
44762;SDS011;30483;49.576;6.036;2024-01-15T18:23:43;2.08;;;1.30;;
44762;SDS011;30483;49.576;6.036;2024-01-15T18:26:09;2.10;;;1.30;;
44762;SDS011;30483;49.576;6.036;2024-01-15T18:28:35;2.55;;;1.60;;
44762;SDS011;30483;49.576;6.036;2024-01-15T18:31:00;3.63;;;1.33;;
44762;SDS011;30483;49.576;6.036;2024-01-15T18:33:26;2.17;;;1.38;;
44762;SDS011;30483;49.576;6.036;2024-01-15T18:35:51;4.13;;;2.40;;
44762;SDS011;30483;49.576;6.036;2024-01-15T18:38:17;6.28;;;2.70;;
44762;SDS011;30483;49.576;6.036;2024-01-15T18:40:42;5.22;;;1.95;;
44762;SDS011;30483;49.576;6.036;2024-01-15T18:43:08;5.70;;;1.63;;